createdAt,value
2023-02-27T00:01:23.990Z,-1.80
2023-02-27T00:03:52.325Z,-1.80
2023-02-27T00:06:20.669Z,-1.70
2023-02-27T00:08:49.359Z,-1.70
2023-02-27T00:11:17.617Z,-1.70
2023-02-27T00:13:45.826Z,-1.70
2023-02-27T00:16:14.489Z,-1.70
2023-02-27T00:18:44.815Z,-1.70
2023-02-27T00:21:13.044Z,-1.70
2023-02-27T00:23:41.268Z,-1.70
2023-02-27T00:26:09.519Z,-1.80
2023-02-27T00:28:38.343Z,-1.80
2023-02-27T00:31:06.875Z,-1.90
2023-02-27T00:33:35.244Z,-1.90
2023-02-27T00:36:05.108Z,-1.90
2023-02-27T00:38:34.003Z,-1.90
2023-02-27T00:41:02.858Z,-2.00
2023-02-27T00:43:31.723Z,-2.00
2023-02-27T00:45:59.929Z,-2.10
2023-02-27T00:48:29.795Z,-2.10
2023-02-27T00:50:58.074Z,-2.10
2023-02-27T00:53:27.691Z,-2.10
2023-02-27T00:55:56.006Z,-2.20
2023-02-27T00:58:24.552Z,-2.10
2023-02-27T01:00:52.845Z,-2.20
2023-02-27T01:03:21.109Z,-2.20
2023-02-27T01:05:49.317Z,-2.20
2023-02-27T01:08:19.056Z,-2.20
2023-02-27T01:10:48.597Z,-2.20
2023-02-27T01:13:17.496Z,-2.20
2023-02-27T01:15:45.970Z,-2.20
2023-02-27T01:18:14.457Z,-2.20
2023-02-27T01:20:42.755Z,-2.20
2023-02-27T01:23:14.308Z,-2.20
2023-02-27T01:25:43.996Z,-2.20
2023-02-27T01:28:14.086Z,-2.20
2023-02-27T01:30:42.685Z,-2.30
2023-02-27T01:33:11.580Z,-2.30
2023-02-27T01:35:41.423Z,-2.20
2023-02-27T01:38:10.221Z,-2.20
2023-02-27T01:40:39.749Z,-2.20
2023-02-27T01:43:15.562Z,-2.10
2023-02-27T01:45:47.799Z,-2.00
2023-02-27T01:48:21.465Z,-1.90
2023-02-27T01:50:54.568Z,-1.80
2023-02-27T01:53:25.902Z,-1.70
2023-02-27T01:55:57.836Z,-1.60
2023-02-27T01:58:27.304Z,-1.50
2023-02-27T02:00:57.147Z,-1.30
2023-02-27T02:03:31.636Z,-1.20
2023-02-27T02:06:02.917Z,-1.10
2023-02-27T02:08:35.584Z,-1.00
2023-02-27T02:11:04.945Z,-0.90
2023-02-27T02:13:33.779Z,-0.90
2023-02-27T02:16:13.775Z,-0.80
2023-02-27T02:18:50.347Z,-0.80
2023-02-27T02:21:52.826Z,-0.80
2023-02-27T02:25:18.941Z,-0.70
2023-02-27T02:28:01.089Z,-0.60
2023-02-27T02:31:02.844Z,-0.60
2023-02-27T02:34:03.017Z,-0.50
2023-02-27T02:37:27.313Z,-0.50
2023-02-27T02:40:17.648Z,-0.50
2023-02-27T02:42:53.897Z,-0.40
2023-02-27T02:45:29.188Z,-0.30
2023-02-27T02:48:02.739Z,-0.30
2023-02-27T02:50:37.419Z,-0.30
2023-02-27T02:53:12.699Z,-0.30
2023-02-27T02:55:47.173Z,-0.20
2023-02-27T02:58:23.026Z,-0.30
2023-02-27T03:00:56.827Z,-0.30
2023-02-27T03:03:30.029Z,-0.30
2023-02-27T03:06:04.045Z,-0.30
2023-02-27T03:08:37.695Z,-0.30
2023-02-27T03:11:08.104Z,-0.20
2023-02-27T03:13:40.667Z,-0.20
2023-02-27T03:16:14.396Z,-0.20
2023-02-27T03:18:47.482Z,-0.20
2023-02-27T03:21:22.820Z,-0.20
2023-02-27T03:23:55.959Z,-0.20
2023-02-27T03:26:33.807Z,-0.20
2023-02-27T03:29:05.731Z,-0.20
2023-02-27T03:31:39.220Z,-0.20
2023-02-27T03:34:14.300Z,-0.20
2023-02-27T03:36:49.051Z,-0.10
2023-02-27T03:39:33.735Z,-0.20
2023-02-27T03:42:15.974Z,-0.10
2023-02-27T03:45:14.266Z,-0.20
2023-02-27T03:47:42.684Z,-0.20
2023-02-27T03:50:12.059Z,-0.20
2023-02-27T03:52:40.798Z,-0.20
2023-02-27T03:55:13.469Z,-0.20
2023-02-27T03:57:44.340Z,-0.20
2023-02-27T04:00:15.794Z,-0.20
2023-02-27T04:02:46.703Z,-0.20
2023-02-27T04:05:18.132Z,-0.20
2023-02-27T04:08:09.578Z,-0.20
2023-02-27T04:10:53.566Z,-0.10
2023-02-27T04:13:45.285Z,-0.10
2023-02-27T04:16:49.231Z,-0.10
2023-02-27T04:19:27.687Z,0.00
2023-02-27T04:22:09.432Z,0.00
2023-02-27T04:24:43.365Z,0.00
2023-02-27T04:27:21.009Z,0.10
2023-02-27T04:29:57.260Z,0.10
2023-02-27T04:32:34.281Z,0.10
2023-02-27T04:35:07.079Z,0.10
2023-02-27T04:37:45.223Z,0.10
2023-02-27T04:40:17.790Z,0.10
2023-02-27T04:42:52.110Z,0.10
2023-02-27T04:45:25.503Z,0.10
2023-02-27T04:47:58.113Z,0.20
2023-02-27T04:50:31.672Z,0.20
2023-02-27T04:53:06.694Z,0.20
2023-02-27T04:55:40.837Z,0.30
2023-02-27T04:58:13.662Z,0.30
2023-02-27T05:00:48.857Z,0.30
2023-02-27T05:03:22.960Z,0.30
2023-02-27T05:05:54.573Z,0.30
2023-02-27T05:08:30.034Z,0.30
2023-02-27T05:11:05.888Z,0.30
2023-02-27T05:13:39.234Z,0.30
2023-02-27T05:16:18.080Z,0.20
2023-02-27T05:18:47.487Z,0.20
2023-02-27T05:21:25.976Z,0.20
2023-02-27T05:24:10.655Z,0.20
2023-02-27T05:27:11.264Z,0.10
2023-02-27T05:29:46.721Z,0.00
2023-02-27T05:32:23.826Z,-0.10
2023-02-27T05:34:55.969Z,-0.30
2023-02-27T05:37:29.975Z,-0.40
2023-02-27T05:39:59.935Z,-0.60
2023-02-27T05:42:33.234Z,-0.70
2023-02-27T05:45:05.974Z,-0.80
2023-02-27T05:47:40.805Z,-0.90
2023-02-27T05:50:13.545Z,-0.90
2023-02-27T05:52:44.206Z,-1.00
2023-02-27T05:55:18.893Z,-1.00
2023-02-27T05:57:52.557Z,-0.90
2023-02-27T06:00:25.607Z,-0.90
2023-02-27T06:02:55.287Z,-0.80
2023-02-27T06:05:26.527Z,-0.80
2023-02-27T06:07:55.108Z,-0.80
2023-02-27T06:10:23.645Z,-0.70
2023-02-27T06:12:52.274Z,-0.70
2023-02-27T06:15:20.491Z,-0.70
2023-02-27T06:17:48.797Z,-0.80
2023-02-27T06:20:18.946Z,-0.80
2023-02-27T06:22:47.455Z,-0.80
2023-02-27T06:25:15.650Z,-0.70
2023-02-27T06:27:43.930Z,-0.70
2023-02-27T06:30:13.214Z,-0.70
2023-02-27T06:32:41.622Z,-0.70
2023-02-27T06:35:11.108Z,-0.70
2023-02-27T06:37:41.178Z,-0.60
2023-02-27T06:40:12.552Z,-0.60
2023-02-27T06:42:41.198Z,-0.50
2023-02-27T06:45:11.065Z,-0.40
2023-02-27T06:47:40.137Z,-0.40
2023-02-27T06:50:11.282Z,-0.30
2023-02-27T06:52:41.932Z,-0.20
2023-02-27T06:55:11.426Z,-0.10
2023-02-27T06:57:40.503Z,0.00
2023-02-27T07:00:11.866Z,0.10
2023-02-27T07:02:40.898Z,0.20
2023-02-27T07:05:11.565Z,0.30
2023-02-27T07:07:42.129Z,0.30
2023-02-27T07:10:13.247Z,0.40
2023-02-27T07:12:42.883Z,0.50
2023-02-27T07:15:12.076Z,0.60
2023-02-27T07:17:40.613Z,0.60
2023-02-27T07:20:11.693Z,0.60
2023-02-27T07:22:42.009Z,0.60
2023-02-27T07:25:10.983Z,0.70
2023-02-27T07:27:39.398Z,0.70
2023-02-27T07:30:08.910Z,0.70
2023-02-27T07:32:37.886Z,0.90
2023-02-27T07:35:07.017Z,1.00
2023-02-27T07:37:35.889Z,1.10
2023-02-27T07:40:07.612Z,1.30
2023-02-27T07:42:36.829Z,1.60
2023-02-27T07:45:06.004Z,1.80
2023-02-27T07:47:34.209Z,1.90
2023-02-27T07:50:04.751Z,2.20
2023-02-27T07:52:33.514Z,3.00
2023-02-27T07:55:01.741Z,3.30
2023-02-27T07:57:31.459Z,3.40
2023-02-27T08:00:00.167Z,3.60
2023-02-27T08:02:28.532Z,3.70
2023-02-27T08:04:57.127Z,3.70
2023-02-27T08:07:25.354Z,3.80
2023-02-27T08:09:53.569Z,4.00
2023-02-27T08:12:22.273Z,4.30
2023-02-27T08:14:51.969Z,4.70
2023-02-27T08:17:20.693Z,5.30
2023-02-27T08:19:49.277Z,5.80
2023-02-27T08:22:17.457Z,5.70
2023-02-27T08:24:46.437Z,5.70
2023-02-27T08:27:14.702Z,5.50
2023-02-27T08:29:45.469Z,5.20
2023-02-27T08:32:15.498Z,4.60
2023-02-27T08:34:43.796Z,4.10
2023-02-27T08:37:12.008Z,3.80
2023-02-27T08:39:40.554Z,3.70
2023-02-27T08:42:09.698Z,3.70
2023-02-27T08:44:37.995Z,3.80
2023-02-27T08:47:06.322Z,3.70
2023-02-27T08:49:35.972Z,3.70
2023-02-27T08:52:05.567Z,3.60
2023-02-27T08:54:33.834Z,3.50
2023-02-27T08:57:02.028Z,3.40
2023-02-27T08:59:30.588Z,3.50
2023-02-27T09:01:59.066Z,3.60
2023-02-27T09:04:27.733Z,3.60
2023-02-27T09:06:58.092Z,3.70
2023-02-27T09:09:27.444Z,3.80
2023-02-27T09:11:57.385Z,3.80
2023-02-27T09:14:25.594Z,3.80
2023-02-27T09:16:53.872Z,3.90
2023-02-27T09:19:22.452Z,4.00
2023-02-27T09:21:50.660Z,3.90
2023-02-27T09:24:21.034Z,3.80
2023-02-27T09:26:49.921Z,3.70
2023-02-27T09:29:18.668Z,3.70
2023-02-27T09:31:47.057Z,3.70
2023-02-27T09:34:15.677Z,3.80
2023-02-27T09:36:43.927Z,3.90
2023-02-27T09:39:12.584Z,4.00
2023-02-27T09:41:57.865Z,4.40
2023-02-27T09:44:46.281Z,4.80
2023-02-27T09:47:19.624Z,4.90
2023-02-27T09:49:55.939Z,4.90
2023-02-27T09:52:24.256Z,4.90
2023-02-27T09:54:54.849Z,4.90
2023-02-27T09:57:34.816Z,5.10
2023-02-27T10:00:09.184Z,4.90
2023-02-27T10:02:48.110Z,4.90
2023-02-27T10:05:25.164Z,5.10
2023-02-27T10:08:02.150Z,5.30
2023-02-27T10:10:35.313Z,5.60
2023-02-27T10:13:30.276Z,5.80
2023-02-27T10:16:00.878Z,5.80
2023-02-27T10:18:33.017Z,6.20
2023-02-27T10:21:03.881Z,6.40
2023-02-27T10:23:38.457Z,6.70
2023-02-27T10:26:07.421Z,6.90
2023-02-27T10:28:37.243Z,6.90
2023-02-27T10:31:18.180Z,6.80
2023-02-27T10:33:49.213Z,6.80
2023-02-27T10:36:32.464Z,6.70
2023-02-27T10:39:05.954Z,6.60
2023-02-27T10:41:35.983Z,6.20
2023-02-27T10:44:06.721Z,5.90
2023-02-27T10:46:39.057Z,5.70
2023-02-27T10:49:18.339Z,5.60
2023-02-27T10:52:06.390Z,5.40
2023-02-27T10:54:35.039Z,5.40
2023-02-27T10:57:05.735Z,5.50
2023-02-27T10:59:38.087Z,5.50
2023-02-27T11:02:21.016Z,5.50
2023-02-27T11:04:54.370Z,5.50
2023-02-27T11:07:32.406Z,5.50
2023-02-27T11:10:03.822Z,5.10
2023-02-27T11:12:34.182Z,4.90
2023-02-27T11:15:22.010Z,4.80
2023-02-27T11:17:50.294Z,5.00
2023-02-27T11:20:36.458Z,5.20
2023-02-27T11:23:07.721Z,5.20
2023-02-27T11:25:36.692Z,5.00
2023-02-27T11:28:21.050Z,4.80
2023-02-27T11:31:00.315Z,5.10
2023-02-27T11:33:30.917Z,5.50
2023-02-27T11:36:00.139Z,5.80
2023-02-27T11:38:30.955Z,6.10
2023-02-27T11:41:01.220Z,6.40
2023-02-27T11:43:32.172Z,6.60
2023-02-27T11:46:41.158Z,6.70
2023-02-27T11:48:58.050Z,6.40
2023-02-27T11:51:34.907Z,6.60
2023-02-27T11:54:16.617Z,6.90
2023-02-27T11:56:48.871Z,7.10
2023-02-27T11:59:30.577Z,7.10
2023-02-27T12:02:07.416Z,6.90
2023-02-27T12:04:50.165Z,6.50
2023-02-27T12:07:25.395Z,6.50
2023-02-27T12:10:01.368Z,6.90
2023-02-27T12:12:33.467Z,7.20
2023-02-27T12:15:15.336Z,6.90
2023-02-27T12:17:48.908Z,6.90
2023-02-27T12:20:37.414Z,6.80
2023-02-27T12:23:15.050Z,6.80
2023-02-27T12:25:48.537Z,6.70
2023-02-27T12:28:31.574Z,6.90
2023-02-27T12:31:15.699Z,6.90
2023-02-27T12:33:50.909Z,6.90
2023-02-27T12:36:19.346Z,6.90
2023-02-27T12:38:47.741Z,7.00
2023-02-27T12:41:37.038Z,7.10
2023-02-27T12:44:33.106Z,7.10
2023-02-27T12:47:13.018Z,7.20
2023-02-27T12:49:51.628Z,7.40
2023-02-27T12:52:30.031Z,7.30
2023-02-27T12:55:07.469Z,7.20
2023-02-27T12:57:47.688Z,6.80
2023-02-27T13:00:19.574Z,6.80
2023-02-27T13:02:59.915Z,6.80
2023-02-27T13:05:38.159Z,6.90
2023-02-27T13:08:24.517Z,6.40
2023-02-27T13:10:59.839Z,6.40
2023-02-27T13:13:33.270Z,6.30
2023-02-27T13:19:15.555Z,6.00
2023-02-27T13:21:52.013Z,5.90
2023-02-27T13:24:27.261Z,5.80
2023-02-27T13:27:02.940Z,5.80
2023-02-27T13:29:38.395Z,6.20
2023-02-27T13:32:32.729Z,6.50
2023-02-27T13:35:20.452Z,6.60
2023-02-27T13:37:55.119Z,6.90
2023-02-27T13:40:35.826Z,7.00
2023-02-27T13:43:07.513Z,6.70
2023-02-27T13:45:51.389Z,6.50
2023-02-27T13:48:41.146Z,6.60
2023-02-27T13:51:13.086Z,6.50
2023-02-27T13:53:42.777Z,6.40
2023-02-27T13:56:22.554Z,6.30
2023-02-27T13:58:52.101Z,6.20
2023-02-27T14:01:28.484Z,6.00
2023-02-27T14:04:02.991Z,5.90
2023-02-27T14:06:31.874Z,5.80
2023-02-27T14:09:14.345Z,5.60
2023-02-27T14:11:54.796Z,5.40
2023-02-27T14:14:45.542Z,5.30
2023-02-27T14:17:15.898Z,5.30
2023-02-27T14:19:59.297Z,5.20
2023-02-27T14:22:40.019Z,5.30
2023-02-27T14:25:24.540Z,5.20
2023-02-27T14:27:57.166Z,5.20
2023-02-27T14:30:40.670Z,5.30
2023-02-27T14:33:33.398Z,5.10
2023-02-27T14:36:10.009Z,5.00
2023-02-27T14:38:39.672Z,4.80
2023-02-27T14:41:23.667Z,4.70
2023-02-27T14:43:56.768Z,4.60
2023-02-27T14:46:28.497Z,4.20
2023-02-27T14:48:58.783Z,3.70
2023-02-27T14:51:30.483Z,3.30
2023-02-27T14:54:05.577Z,3.00
2023-02-27T14:56:36.132Z,2.70
2023-02-27T14:59:17.699Z,2.50
2023-02-27T15:01:46.226Z,2.40
2023-02-27T15:04:18.884Z,2.30
2023-02-27T15:06:50.710Z,2.40
2023-02-27T15:09:23.849Z,2.40
2023-02-27T15:12:03.647Z,2.50
2023-02-27T15:14:36.513Z,2.70
2023-02-27T15:17:15.728Z,2.80
2023-02-27T15:19:47.986Z,2.80
2023-02-27T15:22:32.574Z,2.90
2023-02-27T15:25:08.382Z,3.00
2023-02-27T15:27:38.903Z,3.10
2023-02-27T15:30:20.785Z,3.10
2023-02-27T15:32:49.049Z,3.20
2023-02-27T15:35:21.047Z,3.20
2023-02-27T15:37:53.797Z,3.30
2023-02-27T15:40:24.015Z,3.40
2023-02-27T15:42:54.649Z,3.30
2023-02-27T15:45:26.549Z,3.40
2023-02-27T15:47:54.972Z,3.30
2023-02-27T15:50:28.656Z,3.30
2023-02-27T15:53:03.840Z,3.30
2023-02-27T15:55:35.031Z,3.30
2023-02-27T15:58:07.246Z,3.20
2023-02-27T16:00:36.442Z,3.30
2023-02-27T16:03:08.045Z,3.30
2023-02-27T16:05:38.042Z,3.30
2023-02-27T16:08:07.732Z,3.20
2023-02-27T16:10:38.541Z,3.10
2023-02-27T16:13:30.569Z,3.00
2023-02-27T16:16:03.811Z,3.00
2023-02-27T16:18:37.541Z,3.00
2023-02-27T16:21:14.974Z,3.00
2023-02-27T16:23:44.687Z,2.90
2023-02-27T16:26:29.175Z,2.90
2023-02-27T16:29:02.547Z,2.80
2023-02-27T16:31:32.722Z,2.80
2023-02-27T16:34:13.918Z,2.70
2023-02-27T16:36:44.724Z,2.70
2023-02-27T16:39:14.093Z,2.70
2023-02-27T16:41:43.308Z,2.60
2023-02-27T16:44:12.888Z,2.60
2023-02-27T16:46:41.442Z,2.60
2023-02-27T16:49:20.724Z,2.60
2023-02-27T16:51:49.635Z,2.60
2023-02-27T16:54:18.499Z,2.60
2023-02-27T16:56:49.027Z,2.50
2023-02-27T16:59:28.985Z,2.50
2023-02-27T17:01:58.130Z,2.50
2023-02-27T17:04:27.091Z,2.40
2023-02-27T17:06:56.573Z,2.40
2023-02-27T17:09:27.297Z,2.40
2023-02-27T17:11:56.226Z,2.40
2023-02-27T17:14:26.008Z,2.40
2023-02-27T17:16:54.620Z,2.40
2023-02-27T17:19:23.946Z,2.40
2023-02-27T17:21:52.303Z,2.40
2023-02-27T17:24:20.521Z,2.40
2023-02-27T17:26:50.490Z,2.40
2023-02-27T17:29:20.093Z,2.40
2023-02-27T17:31:50.111Z,2.40
2023-02-27T17:34:18.455Z,2.30
2023-02-27T17:36:46.737Z,2.30
2023-02-27T17:39:15.890Z,2.30
2023-02-27T17:41:45.130Z,2.30
2023-02-27T17:44:13.945Z,2.20
2023-02-27T17:46:42.529Z,2.20
2023-02-27T17:49:12.199Z,2.20
2023-02-27T17:51:40.499Z,2.20
2023-02-27T17:54:08.849Z,2.10
2023-02-27T17:56:37.444Z,2.00
2023-02-27T17:59:07.697Z,2.00
2023-02-27T18:01:36.869Z,1.90
2023-02-27T18:04:06.991Z,1.90
2023-02-27T18:06:36.646Z,1.80
2023-02-27T18:09:05.255Z,1.70
2023-02-27T18:11:33.669Z,1.70
2023-02-27T18:14:01.990Z,1.60
2023-02-27T18:16:30.953Z,1.60
2023-02-27T18:18:59.601Z,1.60
2023-02-27T18:21:27.994Z,1.60
2023-02-27T18:23:57.654Z,1.60
2023-02-27T18:26:30.793Z,1.60
2023-02-27T18:29:01.090Z,1.50
2023-02-27T18:31:31.305Z,1.50
2023-02-27T18:33:59.620Z,1.40
2023-02-27T18:36:29.195Z,1.40
2023-02-27T18:38:59.255Z,1.40
2023-02-27T18:41:27.792Z,1.40
2023-02-27T18:43:56.104Z,1.40
2023-02-27T18:46:24.602Z,1.40
2023-02-27T18:48:52.933Z,1.30
2023-02-27T18:51:24.481Z,1.30
2023-02-27T18:53:53.826Z,1.30
2023-02-27T18:56:26.268Z,1.30
2023-02-27T18:58:57.476Z,1.30
2023-02-27T19:01:29.389Z,1.40
2023-02-27T19:04:03.387Z,1.40
2023-02-27T19:06:33.200Z,1.50
2023-02-27T19:09:01.501Z,1.50
2023-02-27T19:11:34.462Z,1.50
2023-02-27T19:14:03.663Z,1.50
2023-02-27T19:16:33.051Z,1.40
2023-02-27T19:19:03.154Z,1.40
2023-02-27T19:21:31.935Z,1.40
2023-02-27T19:24:00.420Z,1.30
2023-02-27T19:26:30.789Z,1.20
2023-02-27T19:28:59.209Z,1.20
2023-02-27T19:31:28.705Z,1.10
2023-02-27T19:33:57.319Z,1.00
2023-02-27T19:36:27.680Z,1.00
2023-02-27T19:38:56.436Z,0.90
2023-02-27T19:41:25.945Z,0.80
2023-02-27T19:43:55.727Z,0.80
2023-02-27T19:46:26.771Z,0.80
2023-02-27T19:48:58.150Z,0.70
2023-02-27T19:51:27.648Z,0.70
2023-02-27T19:53:56.008Z,0.60
2023-02-27T19:56:26.369Z,0.60
2023-02-27T19:58:56.500Z,0.60
2023-02-27T20:01:27.234Z,0.60
2023-02-27T20:03:56.703Z,0.60
2023-02-27T20:06:28.450Z,0.70
2023-02-27T20:08:58.405Z,0.70
2023-02-27T20:11:30.340Z,0.60
2023-02-27T20:14:00.663Z,0.70
2023-02-27T20:16:30.722Z,0.70
2023-02-27T20:18:59.693Z,0.70
2023-02-27T20:21:29.723Z,0.70
2023-02-27T20:23:59.031Z,0.70
2023-02-27T20:26:29.820Z,0.80
2023-02-27T20:29:01.811Z,0.80
2023-02-27T20:31:33.490Z,0.90
2023-02-27T20:34:02.116Z,0.90
2023-02-27T20:36:31.215Z,0.90
2023-02-27T20:38:59.939Z,0.90
2023-02-27T20:41:29.743Z,0.90
2023-02-27T20:43:59.967Z,0.90
2023-02-27T20:46:30.164Z,0.90
2023-02-27T20:49:00.527Z,1.00
2023-02-27T20:51:31.779Z,1.00
2023-02-27T20:54:01.161Z,1.00
2023-02-27T20:56:32.181Z,1.00
2023-02-27T20:59:04.439Z,1.00
2023-02-27T21:01:33.721Z,0.90
2023-02-27T21:04:02.706Z,0.90
2023-02-27T21:06:32.539Z,0.90
2023-02-27T21:09:03.942Z,0.90
2023-02-27T21:11:33.895Z,0.80
2023-02-27T21:14:06.320Z,0.80
2023-02-27T21:16:34.918Z,0.80
2023-02-27T21:19:03.202Z,0.90
2023-02-27T21:21:33.695Z,0.90
2023-02-27T21:24:02.360Z,0.90
2023-02-27T21:26:35.092Z,1.10
2023-02-27T21:29:07.995Z,1.20
2023-02-27T21:31:39.408Z,1.20
2023-02-27T21:34:10.029Z,1.20
2023-02-27T21:36:42.482Z,1.20
2023-02-27T21:39:14.487Z,1.10
2023-02-27T21:41:43.611Z,1.10
2023-02-27T21:44:15.319Z,1.20
2023-02-27T21:46:44.251Z,1.20
2023-02-27T21:49:17.763Z,1.10
2023-02-27T21:51:46.955Z,1.00
2023-02-27T21:54:17.083Z,1.10
2023-02-27T21:56:48.096Z,1.10
2023-02-27T21:59:19.066Z,1.00
2023-02-27T22:01:48.914Z,1.00
2023-02-27T22:04:18.511Z,1.00
2023-02-27T22:06:49.132Z,1.00
2023-02-27T22:09:18.976Z,1.00
2023-02-27T22:11:48.667Z,1.00
2023-02-27T22:14:18.288Z,1.00
2023-02-27T22:16:47.114Z,1.00
2023-02-27T22:19:20.175Z,1.00
2023-02-27T22:21:48.869Z,1.00
2023-02-27T22:24:17.528Z,1.10
2023-02-27T22:26:47.667Z,1.10
2023-02-27T22:29:17.936Z,1.10
2023-02-27T22:31:46.327Z,1.10
2023-02-27T22:34:18.525Z,1.10
2023-02-27T22:36:52.724Z,1.10
2023-02-27T22:39:22.065Z,1.10
2023-02-27T22:41:50.720Z,1.20
2023-02-27T22:44:20.397Z,1.20
2023-02-27T22:46:50.336Z,1.20
2023-02-27T22:49:21.029Z,1.20
2023-02-27T22:51:51.335Z,1.20
2023-02-27T22:54:21.066Z,1.20
2023-02-27T22:56:54.338Z,1.20
2023-02-27T22:59:26.625Z,1.20
2023-02-27T23:01:55.130Z,1.10
2023-02-27T23:04:23.427Z,1.10
2023-02-27T23:06:52.950Z,1.10
2023-02-27T23:09:24.412Z,1.10
2023-02-27T23:11:52.924Z,1.10
2023-02-27T23:14:22.052Z,1.10
2023-02-27T23:16:51.709Z,1.10
2023-02-27T23:19:21.859Z,1.10
2023-02-27T23:21:50.214Z,1.10
2023-02-27T23:24:20.010Z,1.00
2023-02-27T23:26:50.318Z,1.10
2023-02-27T23:29:19.042Z,1.00
2023-02-27T23:31:48.051Z,1.00
2023-02-27T23:34:17.830Z,1.00
2023-02-27T23:36:46.328Z,1.10
2023-02-27T23:39:14.814Z,1.10
2023-02-27T23:41:43.081Z,1.10
2023-02-27T23:44:29.194Z,1.00
2023-02-27T23:46:57.529Z,1.00
2023-02-27T23:49:27.999Z,0.90
2023-02-27T23:51:56.205Z,1.00
2023-02-27T23:54:24.647Z,1.00
2023-02-27T23:56:52.936Z,1.00
2023-02-27T23:59:21.883Z,0.90
